createdAt,value
2022-10-01T00:01:04.193Z,14.27
2022-10-01T00:03:30.573Z,14.34
2022-10-01T00:05:56.908Z,14.52
2022-10-01T00:08:23.244Z,14.60
2022-10-01T00:10:49.568Z,14.59
2022-10-01T00:13:15.913Z,14.60
2022-10-01T00:15:42.248Z,14.63
2022-10-01T00:18:08.586Z,14.63
2022-10-01T00:20:34.935Z,14.60
2022-10-01T00:23:01.280Z,14.63
2022-10-01T00:25:27.609Z,14.61
2022-10-01T00:27:53.998Z,14.75
2022-10-01T00:30:20.365Z,14.82
2022-10-01T00:32:46.705Z,14.77
2022-10-01T00:35:13.058Z,14.74
2022-10-01T00:37:39.445Z,14.73
2022-10-01T00:40:05.796Z,14.84
2022-10-01T00:42:32.158Z,14.85
2022-10-01T00:44:58.513Z,14.82
2022-10-01T00:47:24.849Z,14.87
2022-10-01T00:49:51.184Z,14.90
2022-10-01T00:52:17.515Z,15.01
2022-10-01T00:54:43.868Z,14.85
2022-10-01T00:57:10.223Z,14.85
2022-10-01T00:59:36.557Z,14.78
2022-10-01T01:02:02.936Z,14.78
2022-10-01T01:04:29.345Z,14.80
2022-10-01T01:06:55.709Z,14.65
2022-10-01T01:09:22.050Z,14.64
2022-10-01T01:11:48.404Z,14.58
2022-10-01T01:14:14.746Z,14.74
2022-10-01T01:16:41.081Z,14.65
2022-10-01T01:19:07.413Z,14.63
2022-10-01T01:21:34.131Z,14.73
2022-10-01T01:24:00.613Z,14.34
2022-10-01T01:26:26.950Z,14.58
2022-10-01T01:28:53.290Z,14.63
2022-10-01T01:31:19.652Z,14.61
2022-10-01T01:33:46.011Z,14.61
2022-10-01T01:36:12.342Z,14.62
2022-10-01T01:38:38.678Z,14.60
2022-10-01T01:41:05.001Z,14.58
2022-10-01T01:43:31.337Z,14.43
2022-10-01T01:45:57.713Z,14.50
2022-10-01T01:48:24.083Z,14.48
2022-10-01T01:50:50.405Z,14.45
2022-10-01T01:53:16.740Z,14.42
2022-10-01T01:55:43.080Z,14.32
2022-10-01T01:58:09.409Z,14.41
2022-10-01T02:00:35.741Z,14.52
2022-10-01T02:03:02.207Z,14.46
2022-10-01T02:05:28.596Z,14.50
2022-10-01T02:07:54.926Z,14.68
2022-10-01T02:10:21.255Z,14.45
2022-10-01T02:12:47.581Z,14.63
2022-10-01T02:15:13.910Z,14.50
2022-10-01T02:17:40.254Z,14.43
2022-10-01T02:20:06.603Z,14.33
2022-10-01T02:22:32.930Z,14.28
2022-10-01T02:24:59.257Z,14.02
2022-10-01T02:27:25.598Z,14.27
2022-10-01T02:29:51.931Z,14.23
2022-10-01T02:32:18.257Z,14.29
2022-10-01T02:34:44.598Z,14.45
2022-10-01T02:37:10.941Z,14.37
2022-10-01T02:39:37.279Z,14.36
2022-10-01T02:42:03.611Z,14.41
2022-10-01T02:44:29.956Z,14.46
2022-10-01T02:46:56.291Z,14.47
2022-10-01T02:49:22.615Z,14.40
2022-10-01T02:51:48.958Z,14.37
2022-10-01T02:54:15.290Z,14.47
2022-10-01T02:56:48.527Z,14.40
2022-10-01T02:59:15.280Z,14.61
2022-10-01T03:01:41.700Z,14.56
2022-10-01T03:04:08.060Z,14.25
2022-10-01T03:06:34.388Z,14.35
2022-10-01T03:09:00.731Z,14.43
2022-10-01T03:11:27.062Z,14.43
2022-10-01T03:13:53.401Z,14.43
2022-10-01T03:16:19.772Z,14.43
2022-10-01T03:18:46.125Z,14.42
2022-10-01T03:21:12.456Z,14.41
2022-10-01T03:23:38.789Z,14.46
2022-10-01T03:26:05.121Z,14.54
2022-10-01T03:28:31.539Z,14.26
2022-10-01T03:30:57.939Z,14.20
2022-10-01T03:33:24.283Z,14.14
2022-10-01T03:35:50.642Z,14.11
2022-10-01T03:38:16.978Z,14.06
2022-10-01T03:40:43.311Z,14.28
2022-10-01T03:43:09.642Z,13.99
2022-10-01T03:45:36.037Z,14.07
2022-10-01T03:48:02.393Z,13.99
2022-10-01T03:50:28.734Z,14.04
2022-10-01T03:52:55.056Z,14.01
2022-10-01T03:55:21.381Z,14.09
2022-10-01T03:57:47.707Z,14.21
2022-10-01T04:00:14.067Z,14.17
2022-10-01T04:02:40.471Z,14.07
2022-10-01T04:05:06.870Z,14.09
2022-10-01T04:07:33.203Z,14.08
2022-10-01T04:09:59.535Z,14.20
2022-10-01T04:12:25.865Z,14.33
2022-10-01T04:14:52.229Z,14.24
2022-10-01T04:17:18.558Z,14.07
2022-10-01T04:19:44.902Z,14.33
2022-10-01T04:22:11.277Z,13.97
2022-10-01T04:24:37.604Z,14.27
2022-10-01T04:27:03.929Z,14.41
2022-10-01T04:29:30.315Z,14.13
2022-10-01T04:31:56.677Z,14.20
2022-10-01T04:34:23.070Z,14.16
2022-10-01T04:36:49.416Z,14.01
2022-10-01T04:39:15.756Z,14.13
2022-10-01T04:41:42.092Z,14.17
2022-10-01T04:44:08.418Z,14.09
2022-10-01T04:46:34.817Z,14.27
2022-10-01T04:49:01.216Z,14.23
2022-10-01T04:51:27.542Z,14.38
2022-10-01T04:53:53.877Z,14.27
2022-10-01T04:56:20.203Z,14.32
2022-10-01T04:58:46.528Z,14.38
2022-10-01T05:01:12.886Z,14.59
2022-10-01T05:03:39.245Z,14.30
2022-10-01T05:06:05.593Z,14.35
2022-10-01T05:08:31.930Z,14.55
2022-10-01T05:10:58.265Z,14.32
2022-10-01T05:13:24.609Z,14.54
2022-10-01T05:15:50.991Z,14.47
2022-10-01T05:18:17.357Z,14.48
2022-10-01T05:20:43.691Z,14.63
2022-10-01T05:23:10.020Z,14.45
2022-10-01T05:25:36.348Z,14.47
2022-10-01T05:28:02.776Z,14.41
2022-10-01T05:30:29.132Z,14.50
2022-10-01T05:32:55.465Z,14.62
2022-10-01T05:35:21.796Z,14.70
2022-10-01T05:37:48.130Z,14.63
2022-10-01T05:40:14.472Z,14.57
2022-10-01T05:42:40.814Z,14.44
2022-10-01T05:45:07.147Z,14.66
2022-10-01T05:47:33.493Z,14.48
2022-10-01T05:49:59.838Z,14.54
2022-10-01T05:52:26.169Z,14.60
2022-10-01T05:54:52.521Z,14.64
2022-10-01T05:57:18.858Z,14.57
2022-10-01T05:59:45.207Z,14.52
2022-10-01T06:02:11.690Z,14.67
2022-10-01T06:04:41.193Z,14.62
2022-10-01T06:07:07.736Z,14.77
2022-10-01T06:09:34.080Z,14.56
2022-10-01T06:12:00.416Z,14.75
2022-10-01T06:14:26.768Z,14.80
2022-10-01T06:16:53.188Z,14.86
2022-10-01T06:19:19.547Z,14.64
2022-10-01T06:21:45.915Z,14.67
2022-10-01T06:24:12.260Z,14.49
2022-10-01T06:26:38.600Z,14.56
2022-10-01T06:29:04.958Z,14.09
2022-10-01T06:31:31.410Z,14.29
2022-10-01T06:33:57.978Z,14.20
2022-10-01T06:36:24.300Z,14.23
2022-10-01T06:38:50.637Z,14.20
2022-10-01T06:41:16.972Z,14.33
2022-10-01T06:43:43.316Z,14.24
2022-10-01T06:46:09.731Z,14.39
2022-10-01T06:48:36.073Z,14.48
2022-10-01T06:51:02.408Z,14.64
2022-10-01T06:53:28.755Z,14.44
2022-10-01T06:55:55.098Z,14.44
2022-10-01T06:58:21.430Z,14.50
2022-10-01T07:00:47.825Z,14.66
2022-10-01T07:03:14.157Z,14.49
2022-10-01T07:05:40.511Z,14.55
2022-10-01T07:08:06.844Z,14.41
2022-10-01T07:10:33.177Z,14.09
2022-10-01T07:12:59.519Z,14.22
2022-10-01T07:15:25.855Z,14.37
2022-10-01T07:17:52.202Z,14.41
2022-10-01T07:20:18.546Z,14.51
2022-10-01T07:22:44.926Z,14.75
2022-10-01T07:25:11.247Z,14.97
2022-10-01T07:27:37.584Z,15.11
2022-10-01T07:30:03.926Z,15.09
2022-10-01T07:32:30.268Z,15.16
2022-10-01T07:34:56.617Z,15.14
2022-10-01T07:37:22.947Z,14.99
2022-10-01T07:39:49.290Z,14.95
2022-10-01T07:42:15.624Z,15.22
2022-10-01T07:44:41.956Z,15.35
2022-10-01T07:47:08.310Z,15.16
2022-10-01T07:49:34.647Z,15.34
2022-10-01T07:52:00.984Z,15.37
2022-10-01T07:54:27.311Z,15.45
2022-10-01T07:56:53.642Z,15.47
2022-10-01T07:59:19.991Z,15.37
2022-10-01T08:01:46.345Z,15.46
2022-10-01T08:04:12.761Z,15.33
2022-10-01T08:06:39.105Z,15.34
2022-10-01T08:09:05.420Z,15.36
2022-10-01T08:11:31.976Z,15.27
2022-10-01T08:13:58.577Z,15.33
2022-10-01T08:16:24.922Z,15.43
2022-10-01T08:18:51.280Z,15.34
2022-10-01T08:21:17.620Z,15.33
2022-10-01T08:23:43.962Z,15.14
2022-10-01T08:26:10.311Z,14.91
2022-10-01T08:28:36.648Z,15.21
2022-10-01T08:31:02.977Z,14.91
2022-10-01T08:33:29.328Z,14.96
2022-10-01T08:35:55.661Z,15.12
2022-10-01T08:38:21.985Z,15.27
2022-10-01T08:40:48.347Z,15.41
2022-10-01T08:43:14.690Z,15.25
2022-10-01T08:45:41.066Z,15.22
2022-10-01T08:48:07.415Z,15.26
2022-10-01T08:50:33.751Z,15.47
2022-10-01T08:53:00.118Z,15.20
2022-10-01T08:55:26.455Z,15.23
2022-10-01T08:57:52.802Z,15.39
2022-10-01T09:00:19.144Z,15.46
2022-10-01T09:02:45.493Z,15.10
2022-10-01T09:05:11.842Z,15.34
2022-10-01T09:07:38.174Z,15.31
2022-10-01T09:10:04.504Z,15.50
2022-10-01T09:12:30.828Z,15.45
2022-10-01T09:14:57.175Z,15.27
2022-10-01T09:17:23.514Z,15.20
2022-10-01T09:19:49.849Z,15.39
2022-10-01T09:22:16.181Z,15.22
2022-10-01T09:24:42.513Z,15.05
2022-10-01T09:27:08.860Z,15.20
2022-10-01T09:29:35.197Z,15.49
2022-10-01T09:32:01.558Z,15.44
2022-10-01T09:34:27.920Z,15.38
2022-10-01T09:36:54.259Z,15.23
2022-10-01T09:39:20.598Z,15.19
2022-10-01T09:41:46.938Z,15.10
2022-10-01T09:44:16.769Z,15.36
2022-10-01T09:46:44.994Z,15.49
2022-10-01T09:49:11.332Z,15.38
2022-10-01T09:51:40.438Z,15.39
2022-10-01T09:54:07.106Z,15.50
2022-10-01T09:56:33.451Z,15.45
2022-10-01T09:58:59.784Z,15.51
2022-10-01T10:01:26.118Z,15.30
2022-10-01T10:03:52.465Z,15.64
2022-10-01T10:06:18.800Z,15.62
2022-10-01T10:08:45.145Z,15.81
2022-10-01T10:11:11.468Z,15.86
2022-10-01T10:13:37.801Z,15.74
2022-10-01T10:16:04.198Z,15.93
2022-10-01T10:18:30.577Z,15.98
2022-10-01T10:20:56.896Z,15.58
2022-10-01T10:23:23.250Z,15.85
2022-10-01T10:25:49.605Z,15.66
2022-10-01T10:28:16.014Z,15.36
2022-10-01T10:30:42.411Z,15.49
2022-10-01T10:33:08.762Z,15.33
2022-10-01T10:35:35.094Z,15.39
2022-10-01T10:38:01.422Z,15.49
2022-10-01T10:40:29.705Z,15.24
2022-10-01T10:42:56.310Z,15.42
2022-10-01T10:45:22.654Z,15.27
2022-10-01T10:47:49.009Z,15.08
2022-10-01T10:50:15.353Z,14.82
2022-10-01T10:52:45.536Z,14.91
2022-10-01T10:55:12.094Z,15.05
2022-10-01T10:57:38.407Z,14.93
2022-10-01T11:00:04.728Z,14.72
2022-10-01T11:02:31.184Z,14.92
2022-10-01T11:04:57.579Z,15.07
2022-10-01T11:07:23.912Z,15.12
2022-10-01T11:09:50.250Z,15.46
2022-10-01T11:12:16.568Z,15.39
2022-10-01T11:14:42.908Z,15.25
2022-10-01T11:17:09.280Z,15.20
2022-10-01T11:19:35.618Z,15.17
2022-10-01T11:22:01.959Z,15.33
2022-10-01T11:24:28.296Z,15.07
2022-10-01T11:26:54.635Z,15.02
2022-10-01T11:29:20.965Z,15.17
2022-10-01T11:31:47.373Z,15.35
2022-10-01T11:34:13.775Z,15.11
2022-10-01T11:36:40.147Z,15.40
2022-10-01T11:39:06.515Z,15.36
2022-10-01T11:41:32.851Z,15.36
2022-10-01T11:43:59.195Z,15.26
2022-10-01T11:46:25.552Z,15.36
2022-10-01T11:48:51.897Z,15.28
2022-10-01T11:51:18.249Z,15.28
2022-10-01T11:53:44.570Z,15.30
2022-10-01T11:56:10.904Z,15.05
2022-10-01T11:58:37.239Z,15.20
2022-10-01T12:01:03.572Z,15.37
2022-10-01T12:03:29.930Z,15.17
2022-10-01T12:05:56.417Z,15.22
2022-10-01T12:08:22.791Z,15.36
2022-10-01T12:10:49.112Z,15.28
2022-10-01T12:13:15.437Z,15.19
2022-10-01T12:15:41.814Z,15.26
2022-10-01T12:18:08.177Z,15.42
2022-10-01T12:20:34.520Z,15.33
2022-10-01T12:23:00.855Z,15.44
2022-10-01T12:25:27.189Z,15.35
2022-10-01T12:27:53.599Z,15.54
2022-10-01T12:30:19.990Z,15.24
2022-10-01T12:32:46.326Z,15.51
2022-10-01T12:35:12.669Z,15.30
2022-10-01T12:37:39.003Z,15.27
2022-10-01T12:40:05.343Z,15.18
2022-10-01T12:42:31.689Z,15.36
2022-10-01T12:44:58.050Z,15.42
2022-10-01T12:47:24.396Z,15.08
2022-10-01T12:49:50.741Z,15.09
2022-10-01T12:52:17.095Z,15.08
2022-10-01T12:54:43.441Z,14.90
2022-10-01T12:57:09.773Z,15.04
2022-10-01T12:59:36.103Z,15.12
2022-10-01T13:02:02.495Z,15.23
2022-10-01T13:04:28.842Z,15.28
2022-10-01T13:06:55.164Z,15.32
2022-10-01T13:09:21.498Z,15.15
2022-10-01T13:11:47.831Z,15.22
2022-10-01T13:14:14.180Z,15.19
2022-10-01T13:16:40.586Z,15.35
2022-10-01T13:19:06.999Z,15.42
2022-10-01T13:21:33.338Z,15.35
2022-10-01T13:23:59.676Z,15.22
2022-10-01T13:26:26.027Z,15.09
2022-10-01T13:28:52.370Z,15.15
2022-10-01T13:31:18.756Z,15.45
2022-10-01T13:33:45.154Z,15.34
2022-10-01T13:36:11.485Z,15.25
2022-10-01T13:38:37.823Z,15.38
2022-10-01T13:41:04.152Z,15.23
2022-10-01T13:43:30.488Z,15.21
2022-10-01T13:45:56.892Z,15.18
2022-10-01T13:48:23.247Z,15.45
2022-10-01T13:50:49.577Z,15.50
2022-10-01T13:53:15.909Z,15.42
2022-10-01T13:55:42.412Z,15.36
2022-10-01T13:58:08.733Z,15.35
2022-10-01T14:00:35.069Z,15.66
2022-10-01T14:03:01.456Z,15.66
2022-10-01T14:05:27.894Z,15.60
2022-10-01T14:07:54.232Z,15.51
2022-10-01T14:10:20.562Z,15.59
2022-10-01T14:12:46.898Z,15.68
2022-10-01T14:15:13.228Z,15.70
2022-10-01T14:17:39.555Z,15.82
2022-10-01T14:20:05.993Z,15.68
2022-10-01T14:22:32.359Z,15.93
2022-10-01T14:24:58.692Z,15.91
2022-10-01T14:27:25.031Z,16.31
2022-10-01T14:29:51.360Z,16.33
2022-10-01T14:32:17.700Z,16.30
2022-10-01T14:34:44.034Z,16.36
2022-10-01T14:37:13.763Z,16.36
2022-10-01T14:39:43.241Z,16.41
2022-10-01T14:42:16.616Z,16.51
2022-10-01T14:44:43.509Z,16.42
2022-10-01T14:47:09.841Z,16.33
2022-10-01T14:49:36.162Z,16.20
2022-10-01T14:52:02.507Z,16.04
2022-10-01T14:54:28.848Z,16.29
2022-10-01T14:56:55.190Z,16.36
2022-10-01T14:59:21.541Z,16.03
2022-10-01T15:01:47.877Z,15.88
2022-10-01T15:04:14.337Z,15.94
2022-10-01T15:06:40.758Z,16.34
2022-10-01T15:09:07.085Z,16.58
2022-10-01T15:11:33.446Z,16.17
2022-10-01T15:13:59.778Z,16.28
2022-10-01T15:16:26.173Z,16.12
2022-10-01T15:18:52.548Z,15.91
2022-10-01T15:21:18.890Z,15.74
2022-10-01T15:23:45.222Z,15.84
2022-10-01T15:26:11.573Z,15.64
2022-10-01T15:28:37.909Z,15.62
2022-10-01T15:31:04.271Z,15.70
2022-10-01T15:33:30.871Z,15.49
2022-10-01T15:35:57.198Z,15.51
2022-10-01T15:38:23.542Z,15.57
2022-10-01T15:40:49.877Z,15.72
2022-10-01T15:43:16.205Z,15.55
2022-10-01T15:45:42.553Z,15.72
2022-10-01T15:48:08.911Z,15.87
2022-10-01T15:50:35.242Z,16.04
2022-10-01T15:53:01.587Z,15.86
2022-10-01T15:55:27.964Z,15.70
2022-10-01T15:57:54.303Z,15.80
2022-10-01T16:00:20.654Z,15.90
2022-10-01T16:02:46.974Z,15.96
2022-10-01T16:05:13.308Z,15.85
2022-10-01T16:07:39.646Z,15.78
2022-10-01T16:10:05.974Z,15.84
2022-10-01T16:12:32.314Z,15.66
2022-10-01T16:14:58.646Z,15.89
2022-10-01T16:17:24.993Z,15.67
2022-10-01T16:19:51.319Z,15.62
2022-10-01T16:22:17.658Z,15.65
2022-10-01T16:24:43.979Z,15.77
2022-10-01T16:27:10.310Z,15.88
2022-10-01T16:29:36.689Z,16.02
2022-10-01T16:32:03.029Z,15.80
2022-10-01T16:34:29.357Z,15.91
2022-10-01T16:36:55.714Z,15.70
2022-10-01T16:39:22.118Z,15.96
2022-10-01T16:42:01.424Z,16.17
2022-10-01T16:44:32.899Z,16.16
2022-10-01T16:46:59.277Z,16.10
2022-10-01T16:49:25.602Z,16.35
2022-10-01T16:51:51.933Z,16.08
2022-10-01T16:54:18.264Z,16.10
2022-10-01T16:56:44.599Z,16.30
2022-10-01T16:59:10.961Z,16.47
2022-10-01T17:01:37.364Z,16.40
2022-10-01T17:04:03.704Z,16.34
2022-10-01T17:06:30.034Z,16.44
2022-10-01T17:08:56.435Z,16.59
2022-10-01T17:11:22.830Z,16.51
2022-10-01T17:13:49.157Z,16.23
2022-10-01T17:16:15.515Z,16.35
2022-10-01T17:18:41.866Z,16.25
2022-10-01T17:21:08.203Z,16.32
2022-10-01T17:23:34.556Z,16.04
2022-10-01T17:26:00.890Z,16.38
2022-10-01T17:28:27.294Z,16.10
2022-10-01T17:30:53.643Z,16.18
2022-10-01T17:33:19.967Z,16.20
2022-10-01T17:35:46.350Z,16.19
2022-10-01T17:38:12.694Z,16.27
2022-10-01T17:40:39.024Z,16.31
2022-10-01T17:43:05.357Z,16.38
2022-10-01T17:45:31.728Z,16.21
2022-10-01T17:47:58.069Z,16.09
2022-10-01T17:50:24.424Z,16.28
2022-10-01T17:52:50.761Z,16.28
2022-10-01T17:55:17.113Z,16.25
2022-10-01T17:57:43.479Z,16.19
2022-10-01T18:00:09.811Z,16.22
2022-10-01T18:02:41.990Z,16.31
2022-10-01T18:05:09.385Z,16.48
2022-10-01T18:07:35.739Z,16.40
2022-10-01T18:10:02.082Z,16.48
2022-10-01T18:12:28.425Z,16.44
2022-10-01T18:14:54.767Z,16.42
2022-10-01T18:17:21.091Z,16.53
2022-10-01T18:19:53.270Z,16.46
2022-10-01T18:22:20.158Z,16.70
2022-10-01T18:24:46.497Z,16.59
2022-10-01T18:27:12.822Z,16.66
2022-10-01T18:29:39.145Z,16.66
2022-10-01T18:32:05.496Z,16.63
2022-10-01T18:34:31.838Z,16.66
2022-10-01T18:36:58.249Z,16.68
2022-10-01T18:39:24.614Z,16.72
2022-10-01T18:41:50.982Z,16.63
2022-10-01T18:44:20.249Z,16.48
2022-10-01T18:46:46.970Z,16.59
2022-10-01T18:49:13.302Z,16.71
2022-10-01T18:51:39.628Z,16.65
2022-10-01T18:54:05.953Z,16.74
2022-10-01T18:56:32.582Z,16.65
2022-10-01T18:58:59.260Z,16.75
2022-10-01T19:01:25.700Z,16.95
2022-10-01T19:03:52.102Z,16.84
2022-10-01T19:06:18.440Z,16.81
2022-10-01T19:08:44.781Z,16.98
2022-10-01T19:11:15.745Z,17.05
2022-10-01T19:13:44.105Z,16.99
2022-10-01T19:16:10.478Z,17.13
2022-10-01T19:18:36.808Z,17.12
2022-10-01T19:21:03.129Z,17.13
2022-10-01T19:23:29.464Z,17.31
2022-10-01T19:25:55.790Z,17.08
2022-10-01T19:28:22.183Z,16.91
2022-10-01T19:30:48.562Z,17.09
2022-10-01T19:33:14.889Z,17.04
2022-10-01T19:35:41.236Z,17.19
2022-10-01T19:38:08.635Z,17.28
2022-10-01T19:40:34.960Z,17.26
2022-10-01T19:43:01.299Z,17.18
2022-10-01T19:45:27.634Z,17.14
2022-10-01T19:47:53.981Z,17.14
2022-10-01T19:50:20.326Z,17.34
2022-10-01T19:52:46.664Z,17.28
2022-10-01T19:55:12.999Z,16.99
2022-10-01T19:57:39.317Z,16.94
2022-10-01T20:00:05.659Z,16.83
2022-10-01T20:02:31.994Z,16.84
2022-10-01T20:04:58.320Z,16.87
2022-10-01T20:07:24.641Z,16.94
2022-10-01T20:09:50.975Z,17.01
2022-10-01T20:12:17.338Z,16.96
2022-10-01T20:14:43.679Z,17.10
2022-10-01T20:17:10.283Z,17.02
2022-10-01T20:19:36.601Z,17.12
2022-10-01T20:22:02.928Z,17.23
2022-10-01T20:24:29.265Z,17.28
2022-10-01T20:26:55.602Z,17.47
2022-10-01T20:29:21.933Z,17.61
2022-10-01T20:31:48.365Z,17.50
2022-10-01T20:34:14.785Z,17.50
2022-10-01T20:36:41.556Z,17.66
2022-10-01T20:39:08.068Z,17.53
2022-10-01T20:41:34.393Z,17.69
2022-10-01T20:44:00.723Z,17.62
2022-10-01T20:46:27.048Z,17.44
2022-10-01T20:48:53.370Z,17.67
2022-10-01T20:51:19.759Z,17.75
2022-10-01T20:53:46.076Z,17.81
2022-10-01T20:56:12.465Z,17.92
2022-10-01T20:58:38.784Z,17.87
2022-10-01T21:01:05.166Z,17.86
2022-10-01T21:03:31.643Z,17.99
2022-10-01T21:05:57.978Z,18.12
2022-10-01T21:08:24.316Z,17.97
2022-10-01T21:10:50.631Z,17.81
2022-10-01T21:13:16.956Z,18.03
2022-10-01T21:15:43.280Z,18.24
2022-10-01T21:18:09.612Z,18.06
2022-10-01T21:20:35.935Z,18.07
2022-10-01T21:23:02.264Z,18.24
2022-10-01T21:25:28.594Z,18.20
2022-10-01T21:27:54.925Z,18.08
2022-10-01T21:30:21.299Z,18.28
2022-10-01T21:32:47.637Z,18.47
2022-10-01T21:35:13.980Z,18.57
2022-10-01T21:37:40.318Z,18.51
2022-10-01T21:40:06.657Z,18.62
2022-10-01T21:42:32.981Z,18.73
2022-10-01T21:44:59.311Z,18.51
2022-10-01T21:47:25.650Z,18.59
2022-10-01T21:49:51.976Z,18.63
2022-10-01T21:52:18.306Z,18.64
2022-10-01T21:54:44.650Z,18.55
2022-10-01T21:57:12.176Z,18.47
2022-10-01T21:59:38.515Z,18.63
2022-10-01T22:02:04.911Z,18.61
2022-10-01T22:04:31.293Z,18.54
2022-10-01T22:06:57.622Z,18.66
2022-10-01T22:09:23.952Z,18.49
2022-10-01T22:11:50.290Z,18.46
2022-10-01T22:14:16.640Z,18.61
2022-10-01T22:16:43.042Z,18.71
2022-10-01T22:19:09.437Z,18.78
2022-10-01T22:21:35.765Z,18.78
2022-10-01T22:24:02.124Z,18.89
2022-10-01T22:26:28.458Z,18.95
2022-10-01T22:28:54.801Z,18.96
2022-10-01T22:31:21.160Z,19.01
2022-10-01T22:33:47.512Z,19.00
2022-10-01T22:36:13.866Z,19.15
2022-10-01T22:38:40.199Z,19.23
2022-10-01T22:41:06.551Z,19.27
2022-10-01T22:43:32.886Z,19.28
2022-10-01T22:45:59.299Z,19.29
2022-10-01T22:48:25.775Z,19.27
2022-10-01T22:50:52.092Z,19.27
2022-10-01T22:53:18.424Z,19.33
2022-10-01T22:55:44.762Z,19.26
2022-10-01T22:58:11.098Z,19.35
2022-10-01T23:00:37.488Z,19.31
2022-10-01T23:03:03.841Z,19.42
2022-10-01T23:05:30.187Z,19.39
2022-10-01T23:07:56.523Z,19.36
2022-10-01T23:10:22.869Z,19.47
2022-10-01T23:12:49.206Z,19.44
2022-10-01T23:15:15.534Z,19.48
2022-10-01T23:17:41.865Z,19.57
2022-10-01T23:20:08.183Z,19.42
2022-10-01T23:22:34.514Z,19.43
2022-10-01T23:25:00.847Z,19.50
2022-10-01T23:27:27.177Z,19.58
2022-10-01T23:29:53.491Z,19.52
2022-10-01T23:32:19.827Z,19.46
2022-10-01T23:34:46.163Z,19.44
2022-10-01T23:37:12.497Z,19.48
2022-10-01T23:39:38.812Z,19.41
2022-10-01T23:42:05.141Z,19.43
2022-10-01T23:44:31.479Z,19.43
2022-10-01T23:46:57.827Z,19.42
2022-10-01T23:49:24.157Z,19.62
2022-10-01T23:51:50.474Z,19.64
2022-10-01T23:54:16.807Z,19.58
2022-10-01T23:56:43.141Z,19.64
2022-10-01T23:59:09.455Z,19.58
